createdAt,value
2018-01-08T00:00:22.008Z,0.00
2018-01-08T00:01:21.995Z,0.00
2018-01-08T00:02:21.975Z,0.00
2018-01-08T00:03:21.963Z,0.00
2018-01-08T00:04:21.949Z,0.00
2018-01-08T00:05:21.944Z,0.00
2018-01-08T00:06:21.925Z,0.00
2018-01-08T00:07:21.902Z,0.00
2018-01-08T00:08:21.890Z,0.00
2018-01-08T00:09:21.875Z,0.00
2018-01-08T00:10:21.864Z,0.00
2018-01-08T00:11:21.869Z,0.00
2018-01-08T00:12:21.837Z,0.00
2018-01-08T00:13:21.830Z,0.00
2018-01-08T00:14:21.807Z,0.00
2018-01-08T00:15:21.800Z,0.00
2018-01-08T00:16:21.774Z,0.00
2018-01-08T00:17:21.769Z,0.00
2018-01-08T00:18:21.774Z,0.00
2018-01-08T00:19:21.755Z,0.00
2018-01-08T00:20:21.718Z,0.00
2018-01-08T00:21:21.710Z,0.00
2018-01-08T00:22:21.688Z,0.00
2018-01-08T00:23:21.672Z,0.00
2018-01-08T00:24:21.685Z,0.00
2018-01-08T00:25:21.658Z,0.00
2018-01-08T00:26:21.653Z,0.00
2018-01-08T00:27:21.617Z,0.00
2018-01-08T00:28:21.615Z,0.00
2018-01-08T00:29:21.588Z,0.00
2018-01-08T00:30:21.575Z,0.00
2018-01-08T00:31:21.584Z,0.00
2018-01-08T00:32:21.554Z,0.00
2018-01-08T00:33:21.537Z,0.00
2018-01-08T00:34:21.528Z,0.00
2018-01-08T00:35:21.528Z,0.00
2018-01-08T00:36:21.488Z,0.00
2018-01-08T00:37:21.492Z,0.00
2018-01-08T00:38:21.474Z,0.00
2018-01-08T00:39:21.450Z,0.00
2018-01-08T00:40:21.436Z,0.00
2018-01-08T00:41:21.421Z,0.00
2018-01-08T00:42:21.402Z,0.00
2018-01-08T00:43:21.398Z,0.00
2018-01-08T00:44:21.375Z,0.00
2018-01-08T00:45:21.390Z,0.00
2018-01-08T00:46:21.375Z,0.00
2018-01-08T00:47:21.346Z,0.00
2018-01-08T00:48:21.320Z,0.00
2018-01-08T00:49:21.308Z,0.00
2018-01-08T00:50:21.301Z,0.00
2018-01-08T00:51:21.309Z,0.00
2018-01-08T00:52:21.262Z,0.00
2018-01-08T00:53:21.252Z,0.00
2018-01-08T00:54:21.236Z,0.00
2018-01-08T00:55:21.221Z,0.00
2018-01-08T00:56:21.208Z,0.00
2018-01-08T00:57:21.219Z,0.00
2018-01-08T00:58:21.180Z,0.00
2018-01-08T00:59:21.182Z,0.00
2018-01-08T01:00:21.157Z,0.00
2018-01-08T01:01:21.134Z,0.00
2018-01-08T01:02:21.122Z,0.00
2018-01-08T01:03:21.109Z,0.00
2018-01-08T01:04:21.093Z,0.00
2018-01-08T01:05:21.092Z,0.00
2018-01-08T01:06:21.072Z,0.00
2018-01-08T01:07:21.065Z,0.00
2018-01-08T01:08:21.046Z,0.00
2018-01-08T01:09:21.022Z,0.00
2018-01-08T01:10:21.021Z,0.00
2018-01-08T01:11:21.004Z,0.00
2018-01-08T01:12:20.980Z,0.00
2018-01-08T01:13:20.979Z,0.00
2018-01-08T01:14:20.957Z,0.00
2018-01-08T01:15:20.941Z,0.00
2018-01-08T01:16:56.811Z,0.00
2018-01-08T01:17:21.720Z,0.00
2018-01-08T01:18:20.902Z,0.00
2018-01-08T01:19:20.900Z,0.00
2018-01-08T01:20:20.886Z,0.00
2018-01-08T01:21:20.854Z,0.00
2018-01-08T01:22:20.841Z,0.00
2018-01-08T01:23:20.833Z,0.00
2018-01-08T01:24:20.814Z,0.00
2018-01-08T01:25:20.815Z,0.00
2018-01-08T01:26:20.786Z,0.00
2018-01-08T01:27:20.797Z,0.00
2018-01-08T01:28:20.759Z,0.00
2018-01-08T01:29:21.722Z,0.00
2018-01-08T01:30:20.733Z,0.00
2018-01-08T01:31:20.742Z,0.00
2018-01-08T01:32:20.705Z,0.00
2018-01-08T01:33:20.694Z,0.00
2018-01-08T01:34:20.679Z,0.00
2018-01-08T01:35:20.658Z,0.00
2018-01-08T01:36:20.669Z,0.00
2018-01-08T01:37:20.634Z,0.00
2018-01-08T01:38:20.621Z,0.00
2018-01-08T01:39:20.605Z,0.00
2018-01-08T01:40:20.611Z,0.00
2018-01-08T01:41:20.582Z,0.00
2018-01-08T01:42:20.569Z,0.00
2018-01-08T01:43:20.553Z,0.00
2018-01-08T01:44:20.539Z,0.00
2018-01-08T01:45:20.522Z,0.00
2018-01-08T01:46:20.528Z,0.00
2018-01-08T01:47:20.498Z,0.00
2018-01-08T01:48:20.488Z,0.00
2018-01-08T01:49:20.473Z,0.00
2018-01-08T01:50:20.457Z,0.00
2018-01-08T01:51:20.438Z,0.00
2018-01-08T01:52:20.427Z,0.00
2018-01-08T01:53:20.414Z,0.00
2018-01-08T01:54:20.399Z,0.00
2018-01-08T01:55:20.388Z,0.00
2018-01-08T01:56:20.373Z,0.00
2018-01-08T01:57:20.356Z,0.00
2018-01-08T01:58:20.354Z,0.00
2018-01-08T01:59:20.370Z,0.00
2018-01-08T02:00:20.331Z,0.00
2018-01-08T02:01:20.302Z,0.00
2018-01-08T02:02:20.296Z,0.00
2018-01-08T02:03:20.277Z,0.00
2018-01-08T02:04:20.261Z,0.00
2018-01-08T02:05:20.251Z,0.00
2018-01-08T02:06:20.253Z,0.00
2018-01-08T02:07:20.219Z,0.00
2018-01-08T02:08:20.210Z,0.00
2018-01-08T02:09:20.202Z,0.00
2018-01-08T02:10:20.177Z,0.00
2018-01-08T02:11:20.164Z,0.00
2018-01-08T02:12:20.154Z,0.00
2018-01-08T02:13:20.148Z,0.00
2018-01-08T02:14:20.139Z,0.00
2018-01-08T02:15:20.114Z,0.00
2018-01-08T02:16:20.094Z,0.00
2018-01-08T02:17:20.082Z,0.00
2018-01-08T02:18:20.069Z,0.00
2018-01-08T02:19:20.054Z,0.00
2018-01-08T02:20:20.062Z,0.00
2018-01-08T02:21:20.029Z,0.00
2018-01-08T02:22:20.028Z,0.00
2018-01-08T02:23:19.999Z,0.00
2018-01-08T02:24:19.985Z,0.00
2018-01-08T02:25:19.972Z,0.00
2018-01-08T02:26:19.960Z,0.00
2018-01-08T02:27:19.941Z,0.00
2018-01-08T02:28:19.929Z,0.00
2018-01-08T02:29:19.925Z,0.00
2018-01-08T02:30:19.903Z,0.00
2018-01-08T02:31:19.891Z,0.00
2018-01-08T02:32:19.873Z,0.00
2018-01-08T02:33:19.864Z,0.00
2018-01-08T02:34:19.849Z,0.00
2018-01-08T02:35:19.834Z,0.00
2018-01-08T02:36:19.821Z,0.00
2018-01-08T02:37:19.814Z,0.00
2018-01-08T02:38:19.793Z,0.00
2018-01-08T02:39:19.782Z,0.00
2018-01-08T02:40:19.813Z,0.00
2018-01-08T02:41:19.760Z,0.00
2018-01-08T02:42:19.740Z,0.00
2018-01-08T02:43:19.733Z,0.00
2018-01-08T02:44:19.720Z,0.00
2018-01-08T02:45:19.700Z,0.00
2018-01-08T02:46:19.707Z,0.00
2018-01-08T02:47:19.676Z,0.00
2018-01-08T02:48:19.691Z,0.00
2018-01-08T02:49:19.642Z,0.00
2018-01-08T02:50:19.628Z,0.00
2018-01-08T02:51:19.614Z,0.00
2018-01-08T02:52:19.599Z,0.00
2018-01-08T02:53:19.587Z,0.00
2018-01-08T02:54:19.580Z,0.00
2018-01-08T02:55:19.558Z,0.00
2018-01-08T02:56:19.569Z,0.00
2018-01-08T02:57:19.530Z,0.00
2018-01-08T02:58:19.522Z,0.00
2018-01-08T02:59:19.507Z,0.00
2018-01-08T03:00:19.491Z,0.00
2018-01-08T03:01:19.477Z,0.00
2018-01-08T03:02:19.470Z,0.00
2018-01-08T03:03:19.450Z,0.00
2018-01-08T03:04:19.442Z,0.00
2018-01-08T03:05:19.420Z,0.00
2018-01-08T03:06:19.411Z,0.00
2018-01-08T03:07:19.414Z,0.00
2018-01-08T03:08:19.397Z,0.00
2018-01-08T03:09:19.370Z,0.00
2018-01-08T03:10:19.357Z,0.00
2018-01-08T03:11:19.339Z,0.00
2018-01-08T03:12:19.329Z,0.00
2018-01-08T03:13:19.314Z,0.00
2018-01-08T03:14:19.302Z,0.00
2018-01-08T03:15:19.289Z,0.00
2018-01-08T03:16:19.277Z,0.00
2018-01-08T03:17:19.269Z,0.00
2018-01-08T03:18:19.244Z,0.00
2018-01-08T03:19:19.233Z,0.00
2018-01-08T03:20:19.215Z,0.00
2018-01-08T03:21:19.206Z,0.00
2018-01-08T03:22:19.194Z,0.00
2018-01-08T03:23:19.176Z,0.00
2018-01-08T03:24:19.175Z,0.00
2018-01-08T03:25:19.152Z,0.00
2018-01-08T03:26:19.137Z,0.00
2018-01-08T03:27:19.125Z,0.00
2018-01-08T03:28:19.106Z,0.00
2018-01-08T03:29:19.093Z,0.00
2018-01-08T03:30:19.089Z,0.00
2018-01-08T03:31:19.067Z,0.00
2018-01-08T03:32:19.061Z,0.00
2018-01-08T03:33:19.041Z,0.00
2018-01-08T03:34:19.026Z,0.00
2018-01-08T03:35:19.014Z,0.00
2018-01-08T03:36:18.999Z,0.00
2018-01-08T03:37:18.986Z,0.00
2018-01-08T03:38:18.979Z,0.00
2018-01-08T03:39:18.955Z,0.00
2018-01-08T03:40:18.943Z,0.00
2018-01-08T03:41:18.928Z,0.00
2018-01-08T03:42:18.922Z,0.00
2018-01-08T03:43:18.906Z,0.00
2018-01-08T03:44:18.891Z,0.00
2018-01-08T03:45:18.899Z,0.00
2018-01-08T03:46:18.863Z,0.00
2018-01-08T03:47:18.852Z,0.00
2018-01-08T03:48:18.833Z,0.00
2018-01-08T03:49:18.817Z,0.00
2018-01-08T03:50:18.840Z,0.00
2018-01-08T03:51:18.797Z,0.00
2018-01-08T03:52:18.783Z,0.00
2018-01-08T03:53:18.769Z,0.00
2018-01-08T03:54:18.776Z,0.00
2018-01-08T03:55:18.751Z,0.00
2018-01-08T03:56:18.729Z,0.00
2018-01-08T03:57:18.745Z,0.00
2018-01-08T03:58:18.713Z,0.00
2018-01-08T03:59:18.707Z,0.00
2018-01-08T04:00:18.675Z,0.00
2018-01-08T04:01:18.657Z,0.00
2018-01-08T04:02:18.643Z,0.00
2018-01-08T04:03:18.643Z,0.00
2018-01-08T04:04:18.623Z,0.00
2018-01-08T04:05:18.603Z,0.00
2018-01-08T04:06:18.590Z,0.00
2018-01-08T04:07:18.574Z,0.00
2018-01-08T04:08:18.559Z,0.00
2018-01-08T04:09:18.549Z,0.00
2018-01-08T04:10:18.541Z,0.00
2018-01-08T04:11:18.523Z,0.00
2018-01-08T04:12:18.505Z,0.00
2018-01-08T04:13:18.498Z,0.00
2018-01-08T04:14:18.482Z,0.00
2018-01-08T04:15:18.476Z,0.00
2018-01-08T04:16:18.450Z,0.00
2018-01-08T04:17:18.443Z,0.00
2018-01-08T04:18:18.425Z,0.00
2018-01-08T04:19:18.413Z,0.00
2018-01-08T04:20:18.402Z,0.00
2018-01-08T04:21:18.383Z,0.00
2018-01-08T04:22:18.371Z,0.00
2018-01-08T04:23:18.366Z,0.00
2018-01-08T04:24:18.344Z,0.00
2018-01-08T04:25:18.333Z,0.00
2018-01-08T04:26:18.319Z,0.00
2018-01-08T04:27:18.302Z,0.00
2018-01-08T04:28:18.292Z,0.00
2018-01-08T04:29:18.278Z,0.00
2018-01-08T04:30:18.263Z,0.00
2018-01-08T04:31:18.249Z,0.00
2018-01-08T04:32:18.238Z,0.00
2018-01-08T04:33:18.227Z,0.00
2018-01-08T04:34:18.209Z,0.00
2018-01-08T04:35:18.198Z,0.00
2018-01-08T04:36:18.182Z,0.00
2018-01-08T04:37:18.172Z,0.00
2018-01-08T04:38:18.164Z,0.00
2018-01-08T04:39:18.163Z,0.00
2018-01-08T04:40:18.130Z,0.00
2018-01-08T04:41:18.112Z,0.00
2018-01-08T04:42:18.101Z,0.00
2018-01-08T04:43:18.084Z,0.00
2018-01-08T04:44:18.100Z,0.00
2018-01-08T04:45:18.058Z,0.00
2018-01-08T04:46:18.064Z,0.00
2018-01-08T04:47:18.040Z,0.00
2018-01-08T04:48:18.028Z,0.00
2018-01-08T04:49:18.013Z,0.00
2018-01-08T04:50:17.990Z,0.00
2018-01-08T04:51:17.981Z,0.00
2018-01-08T04:52:17.964Z,0.00
2018-01-08T04:53:17.962Z,0.00
2018-01-08T04:54:17.935Z,0.00
2018-01-08T04:55:17.924Z,0.00
2018-01-08T04:56:17.911Z,0.00
2018-01-08T04:57:17.892Z,0.00
2018-01-08T04:58:17.880Z,0.00
2018-01-08T04:59:17.878Z,0.00
2018-01-08T05:00:17.854Z,0.00
2018-01-08T05:01:17.838Z,0.00
2018-01-08T05:02:17.825Z,0.00
2018-01-08T05:03:17.815Z,0.00
2018-01-08T05:04:17.800Z,0.00
2018-01-08T05:05:17.787Z,0.00
2018-01-08T05:06:17.776Z,0.00
2018-01-08T05:07:17.760Z,0.00
2018-01-08T05:08:17.745Z,0.00
2018-01-08T05:09:17.734Z,0.00
2018-01-08T05:10:17.723Z,0.00
2018-01-08T05:11:17.705Z,0.00
2018-01-08T05:12:17.692Z,0.00
2018-01-08T05:13:17.687Z,0.00
2018-01-08T05:14:17.665Z,0.00
2018-01-08T05:15:17.648Z,0.00
2018-01-08T05:16:17.637Z,0.00
2018-01-08T05:17:17.621Z,0.00
2018-01-08T05:18:17.606Z,0.00
2018-01-08T05:19:17.595Z,0.00
2018-01-08T05:20:17.587Z,0.00
2018-01-08T05:21:17.569Z,0.00
2018-01-08T05:22:17.559Z,0.00
2018-01-08T05:23:17.555Z,0.00
2018-01-08T05:24:17.526Z,0.00
2018-01-08T05:25:17.512Z,0.00
2018-01-08T05:26:17.503Z,0.00
2018-01-08T05:27:17.487Z,0.00
2018-01-08T05:28:17.477Z,0.00
2018-01-08T05:29:17.463Z,0.00
2018-01-08T05:30:17.448Z,0.00
2018-01-08T05:31:17.432Z,0.00
2018-01-08T05:32:17.425Z,0.00
2018-01-08T05:33:17.407Z,0.00
2018-01-08T05:34:17.393Z,0.00
2018-01-08T05:35:17.379Z,0.00
2018-01-08T05:36:17.362Z,0.00
2018-01-08T05:37:17.358Z,0.00
2018-01-08T05:38:17.336Z,0.00
2018-01-08T05:39:17.327Z,0.00
2018-01-08T05:40:17.311Z,0.00
2018-01-08T05:41:17.294Z,0.00
2018-01-08T05:42:17.283Z,0.00
2018-01-08T05:43:17.270Z,0.00
2018-01-08T05:44:17.257Z,0.00
2018-01-08T05:45:17.238Z,0.00
2018-01-08T05:46:17.229Z,0.00
2018-01-08T05:47:17.223Z,0.00
2018-01-08T05:48:17.206Z,0.00
2018-01-08T05:49:17.188Z,0.00
2018-01-08T05:50:17.174Z,0.00
2018-01-08T05:51:17.163Z,0.00
2018-01-08T05:52:17.148Z,0.00
2018-01-08T05:53:17.135Z,0.00
2018-01-08T05:54:17.127Z,0.00
2018-01-08T05:55:17.115Z,0.00
2018-01-08T05:56:17.089Z,0.00
2018-01-08T05:57:17.080Z,0.00
2018-01-08T05:58:17.063Z,0.00
2018-01-08T05:59:17.052Z,0.00
2018-01-08T06:00:17.039Z,0.00
2018-01-08T06:01:17.021Z,0.00
2018-01-08T06:02:17.019Z,0.00
2018-01-08T06:03:16.998Z,0.00
2018-01-08T06:04:16.983Z,0.00
2018-01-08T06:05:16.970Z,0.00
2018-01-08T06:06:16.953Z,0.00
2018-01-08T06:07:16.937Z,0.00
2018-01-08T06:08:16.927Z,0.00
2018-01-08T06:09:16.917Z,0.00
2018-01-08T06:10:16.913Z,0.00
2018-01-08T06:11:16.890Z,0.00
2018-01-08T06:12:16.878Z,0.00
2018-01-08T06:13:16.863Z,0.00
2018-01-08T06:14:16.916Z,0.00
2018-01-08T06:15:16.831Z,0.00
2018-01-08T06:16:16.822Z,0.00
2018-01-08T06:17:16.803Z,0.00
2018-01-08T06:18:16.795Z,0.00
2018-01-08T06:19:16.779Z,0.00
2018-01-08T06:20:16.763Z,0.00
2018-01-08T06:21:16.752Z,0.00
2018-01-08T06:22:16.738Z,0.00
2018-01-08T06:23:16.721Z,0.00
2018-01-08T06:24:16.734Z,0.00
2018-01-08T06:25:16.692Z,0.00
2018-01-08T06:26:16.686Z,0.00
2018-01-08T06:27:16.695Z,0.00
2018-01-08T06:28:16.658Z,0.00
2018-01-08T06:29:16.644Z,0.00
2018-01-08T06:30:16.624Z,0.00
2018-01-08T06:31:16.619Z,0.00
2018-01-08T06:32:16.599Z,0.00
2018-01-08T06:33:16.596Z,0.00
2018-01-08T06:34:16.583Z,0.00
2018-01-08T06:35:16.559Z,0.00
2018-01-08T06:36:16.569Z,0.00
2018-01-08T06:37:16.531Z,0.00
2018-01-08T06:38:16.520Z,0.00
2018-01-08T06:39:16.507Z,0.00
2018-01-08T06:40:16.502Z,0.00
2018-01-08T06:41:16.478Z,0.00
2018-01-08T06:42:16.464Z,0.00
2018-01-08T06:43:16.474Z,0.00
2018-01-08T06:44:16.444Z,0.00
2018-01-08T06:45:16.425Z,0.00
2018-01-08T06:46:16.407Z,0.00
2018-01-08T06:47:16.428Z,0.00
2018-01-08T06:48:16.382Z,0.00
2018-01-08T06:49:16.366Z,0.00
2018-01-08T06:50:16.351Z,0.00
2018-01-08T06:51:16.336Z,0.00
2018-01-08T06:52:16.363Z,0.00
2018-01-08T06:53:16.317Z,0.00
2018-01-08T06:54:16.298Z,0.00
2018-01-08T06:55:16.300Z,0.00
2018-01-08T06:56:16.270Z,0.00
2018-01-08T06:57:16.269Z,0.00
2018-01-08T06:58:16.247Z,4.00
2018-01-08T06:59:16.234Z,4.00
2018-01-08T07:00:16.217Z,4.00
2018-01-08T07:01:16.202Z,0.00
2018-01-08T07:02:16.213Z,4.00
2018-01-08T07:03:16.169Z,4.00
2018-01-08T07:04:16.160Z,4.00
2018-01-08T07:05:16.152Z,8.00
2018-01-08T07:06:16.186Z,8.00
2018-01-08T07:07:16.127Z,12.00
2018-01-08T07:08:16.371Z,12.00
2018-01-08T07:09:17.711Z,12.00
2018-01-08T07:10:16.090Z,16.00
2018-01-08T07:11:16.058Z,12.00
2018-01-08T07:12:16.055Z,16.00
2018-01-08T07:13:16.068Z,20.00
2018-01-08T07:14:16.021Z,24.00
2018-01-08T07:15:16.083Z,28.00
2018-01-08T07:16:16.003Z,32.00
2018-01-08T07:17:16.022Z,36.00
2018-01-08T07:18:15.971Z,40.00
2018-01-08T07:20:39.352Z,52.00
2018-01-08T07:21:39.059Z,60.00
2018-01-08T07:23:32.724Z,72.00
2018-01-08T07:24:32.647Z,84.00
2018-01-08T07:26:26.413Z,100.00
2018-01-08T07:27:26.251Z,112.00
2018-01-08T07:28:26.219Z,124.00
2018-01-08T07:29:26.218Z,132.00
2018-01-08T07:30:26.211Z,144.00
2018-01-08T07:31:26.181Z,156.00
2018-01-08T07:32:26.178Z,172.00
2018-01-08T07:33:26.146Z,184.00
2018-01-08T07:34:26.139Z,196.00
2018-01-08T07:35:26.121Z,208.00
2018-01-08T07:36:26.103Z,224.00
2018-01-08T07:37:26.107Z,244.00
2018-01-08T07:38:26.077Z,260.00
2018-01-08T07:39:26.063Z,276.00
2018-01-08T07:40:26.049Z,292.00
2018-01-08T07:41:26.043Z,308.00
2018-01-08T07:42:26.016Z,328.00
2018-01-08T07:43:26.005Z,348.00
2018-01-08T07:44:26.004Z,368.00
2018-01-08T07:45:26.002Z,384.00
2018-01-08T07:46:25.990Z,404.00
2018-01-08T07:47:25.965Z,424.00
2018-01-08T07:48:25.932Z,448.00
2018-01-08T07:49:25.930Z,464.00
2018-01-08T07:50:25.914Z,488.00
2018-01-08T07:51:25.898Z,508.00
2018-01-08T07:52:25.891Z,532.00
2018-01-08T07:53:25.867Z,556.00
2018-01-08T07:54:25.846Z,580.00
2018-01-08T07:55:25.835Z,604.00
2018-01-08T07:56:25.855Z,628.00
2018-01-08T07:57:25.808Z,652.00
2018-01-08T07:58:25.794Z,680.00
2018-01-08T07:59:25.777Z,708.00
2018-01-08T08:00:25.762Z,736.00
2018-01-08T08:01:25.750Z,760.00
2018-01-08T08:02:25.736Z,796.00
2018-01-08T08:03:25.740Z,832.00
2018-01-08T08:04:25.721Z,880.00
2018-01-08T08:05:25.694Z,916.00
2018-01-08T08:06:25.681Z,944.00
2018-01-08T08:07:25.694Z,956.00
2018-01-08T08:08:25.649Z,984.00
2018-01-08T08:09:25.638Z,1024.00
2018-01-08T08:10:25.624Z,1068.00
2018-01-08T08:11:25.610Z,1104.00
2018-01-08T08:12:25.594Z,1140.00
2018-01-08T08:13:25.581Z,1168.00
2018-01-08T08:14:25.565Z,1220.00
2018-01-08T08:15:25.549Z,1268.00
2018-01-08T08:16:25.542Z,1300.00
2018-01-08T08:17:25.526Z,1328.00
2018-01-08T08:18:25.512Z,1352.00
2018-01-08T08:19:25.492Z,1352.00
2018-01-08T08:20:25.501Z,1344.00
2018-01-08T08:21:25.475Z,1372.00
2018-01-08T08:22:25.467Z,1460.00
2018-01-08T08:23:25.442Z,1636.00
2018-01-08T08:24:25.425Z,1716.00
2018-01-08T08:25:25.413Z,1668.00
2018-01-08T08:26:25.401Z,1636.00
2018-01-08T08:27:25.384Z,1648.00
2018-01-08T08:28:26.076Z,1696.00
2018-01-08T08:29:25.354Z,1880.00
2018-01-08T08:30:25.353Z,2076.00
2018-01-08T08:31:25.352Z,2256.00
2018-01-08T08:32:25.319Z,2428.00
2018-01-08T08:33:25.308Z,2480.00
2018-01-08T08:34:25.286Z,2556.00
2018-01-08T08:35:25.290Z,2612.00
2018-01-08T08:36:25.266Z,2380.00
2018-01-08T08:37:25.243Z,2184.00
2018-01-08T08:38:25.231Z,2268.00
2018-01-08T08:39:25.217Z,2524.00
2018-01-08T08:40:25.204Z,2560.00
2018-01-08T08:41:25.191Z,2640.00
2018-01-08T08:42:25.180Z,2492.00
2018-01-08T08:43:25.164Z,2496.00
2018-01-08T08:44:25.151Z,2568.00
2018-01-08T08:45:25.156Z,2508.00
2018-01-08T08:46:25.122Z,2512.00
2018-01-08T08:47:25.117Z,2424.00
2018-01-08T08:48:25.104Z,2300.00
2018-01-08T08:49:25.092Z,2188.00
2018-01-08T08:50:25.071Z,2300.00
2018-01-08T08:51:25.070Z,2408.00
2018-01-08T08:52:25.060Z,2500.00
2018-01-08T08:53:25.031Z,2616.00
2018-01-08T08:54:25.014Z,2684.00
2018-01-08T08:55:25.030Z,2684.00
2018-01-08T08:56:24.993Z,2652.00
2018-01-08T08:57:24.978Z,2636.00
2018-01-08T08:58:25.009Z,2640.00
2018-01-08T08:59:24.950Z,2700.00
2018-01-08T09:00:24.936Z,2796.00
2018-01-08T09:01:24.921Z,2880.00
2018-01-08T09:02:24.911Z,3172.00
2018-01-08T09:03:24.916Z,3156.00
2018-01-08T09:04:24.883Z,3328.00
2018-01-08T09:05:24.867Z,3400.00
2018-01-08T09:06:24.858Z,3664.00
2018-01-08T09:07:24.852Z,3948.00
2018-01-08T09:08:24.854Z,4164.00
2018-01-08T09:09:24.818Z,4424.00
2018-01-08T09:10:24.827Z,4596.00
2018-01-08T09:11:24.811Z,4820.00
2018-01-08T09:12:24.783Z,5040.00
2018-01-08T09:13:24.813Z,5072.00
2018-01-08T09:14:24.756Z,5284.00
2018-01-08T09:15:24.744Z,4404.00
2018-01-08T09:16:24.754Z,4716.00
2018-01-08T09:17:24.717Z,4888.00
2018-01-08T09:18:24.726Z,4832.00
2018-01-08T09:19:24.714Z,5024.00
2018-01-08T09:20:24.690Z,4592.00
2018-01-08T09:21:24.672Z,5056.00
2018-01-08T09:22:24.658Z,5152.00
2018-01-08T09:23:24.656Z,4788.00
2018-01-08T09:24:24.636Z,5080.00
2018-01-08T09:25:24.621Z,4968.00
2018-01-08T09:26:24.609Z,5204.00
2018-01-08T09:27:24.595Z,5192.00
2018-01-08T09:28:24.605Z,4540.00
2018-01-08T09:29:24.572Z,4348.00
2018-01-08T09:30:24.578Z,4260.00
2018-01-08T09:31:24.548Z,4148.00
2018-01-08T09:32:24.534Z,4128.00
2018-01-08T09:33:24.531Z,4456.00
2018-01-08T09:34:24.516Z,4592.00
2018-01-08T09:35:24.498Z,4592.00
2018-01-08T09:36:24.509Z,4628.00
2018-01-08T09:37:24.492Z,4484.00
2018-01-08T09:38:24.472Z,4480.00
2018-01-08T09:39:24.459Z,4564.00
2018-01-08T09:40:24.448Z,4624.00
2018-01-08T09:41:24.449Z,4848.00
2018-01-08T09:42:24.419Z,4912.00
2018-01-08T09:43:24.406Z,5196.00
2018-01-08T09:44:24.395Z,5220.00
2018-01-08T09:45:24.386Z,5548.00
2018-01-08T09:46:24.372Z,5492.00
2018-01-08T09:47:24.363Z,5776.00
2018-01-08T09:48:24.366Z,6004.00
2018-01-08T09:49:24.336Z,6164.00
2018-01-08T09:50:24.326Z,6312.00
2018-01-08T09:51:24.345Z,5932.00
2018-01-08T09:52:24.351Z,5532.00
2018-01-08T09:53:24.345Z,5540.00
2018-01-08T09:54:24.306Z,5788.00
2018-01-08T09:55:24.279Z,5856.00
2018-01-08T09:56:24.273Z,5780.00
2018-01-08T09:57:24.326Z,5672.00
2018-01-08T09:58:24.247Z,5576.00
2018-01-08T09:59:24.224Z,5648.00
2018-01-08T10:00:24.210Z,4976.00
2018-01-08T10:01:24.204Z,4860.00
2018-01-08T10:02:24.191Z,5684.00
2018-01-08T10:03:24.178Z,5736.00
2018-01-08T10:04:24.171Z,5660.00
2018-01-08T10:05:24.163Z,5820.00
2018-01-08T10:06:24.152Z,5924.00
2018-01-08T10:07:24.133Z,6188.00
2018-01-08T10:08:24.127Z,6188.00
2018-01-08T10:09:24.162Z,6104.00
2018-01-08T10:10:24.102Z,6276.00
2018-01-08T10:11:24.091Z,6360.00
2018-01-08T10:12:24.080Z,6044.00
2018-01-08T10:13:24.067Z,6792.00
2018-01-08T10:14:24.071Z,7292.00
2018-01-08T10:15:24.046Z,7648.00
2018-01-08T10:16:24.063Z,7580.00
2018-01-08T10:17:24.070Z,7532.00
2018-01-08T10:18:24.060Z,7836.00
2018-01-08T10:19:24.020Z,8024.00
2018-01-08T10:20:24.017Z,8776.00
2018-01-08T10:21:23.980Z,8904.00
2018-01-08T10:22:23.977Z,7864.00
2018-01-08T10:23:23.973Z,8024.00
2018-01-08T10:24:23.953Z,7872.00
2018-01-08T10:25:23.945Z,6032.00
2018-01-08T10:26:23.947Z,6288.00
2018-01-08T10:27:23.917Z,7312.00
2018-01-08T10:28:23.907Z,8272.00
2018-01-08T10:29:23.898Z,8144.00
2018-01-08T10:30:23.881Z,9704.00
2018-01-08T10:31:23.870Z,10764.00
2018-01-08T10:32:23.869Z,11552.00
2018-01-08T10:33:23.857Z,11656.00
2018-01-08T10:34:23.846Z,11084.00
2018-01-08T10:35:23.828Z,13588.00
2018-01-08T10:36:23.835Z,19264.00
2018-01-08T10:37:23.809Z,18976.00
2018-01-08T10:38:23.829Z,17376.00
2018-01-08T10:39:23.787Z,18112.00
2018-01-08T10:40:23.817Z,18496.00
2018-01-08T10:41:23.765Z,18656.00
2018-01-08T10:42:23.867Z,18432.00
2018-01-08T10:43:23.742Z,17600.00
2018-01-08T10:44:23.737Z,19232.00
2018-01-08T10:45:23.723Z,20128.00
2018-01-08T10:46:23.724Z,19008.00
2018-01-08T10:47:23.702Z,18080.00
2018-01-08T10:48:23.694Z,17696.00
2018-01-08T10:49:23.681Z,17056.00
2018-01-08T10:50:23.682Z,16192.00
2018-01-08T10:51:23.662Z,16416.00
2018-01-08T10:52:23.655Z,16768.00
2018-01-08T10:53:23.647Z,16192.00
2018-01-08T10:54:23.636Z,14944.00
2018-01-08T10:55:23.628Z,14560.00
2018-01-08T10:56:23.622Z,14656.00
2018-01-08T10:57:23.610Z,15040.00
2018-01-08T10:58:23.599Z,15520.00
2018-01-08T10:59:23.652Z,15392.00
2018-01-08T11:00:23.588Z,15200.00
2018-01-08T11:01:23.573Z,15488.00
2018-01-08T11:02:23.563Z,15264.00
2018-01-08T11:03:23.574Z,15840.00
2018-01-08T11:04:23.544Z,15232.00
2018-01-08T11:05:23.534Z,15136.00
2018-01-08T11:06:23.529Z,15488.00
2018-01-08T11:07:23.520Z,15136.00
2018-01-08T11:08:23.504Z,14688.00
2018-01-08T11:09:23.493Z,14304.00
2018-01-08T11:10:23.556Z,14368.00
2018-01-08T11:11:23.475Z,14080.00
2018-01-08T11:12:23.480Z,14912.00
2018-01-08T11:13:23.460Z,14464.00
2018-01-08T11:14:23.474Z,13356.00
2018-01-08T11:15:23.467Z,13720.00
2018-01-08T11:16:23.451Z,14240.00
2018-01-08T11:17:23.455Z,14176.00
2018-01-08T11:18:23.417Z,14208.00
2018-01-08T11:19:23.410Z,14304.00
2018-01-08T11:20:23.395Z,14720.00
2018-01-08T11:21:23.491Z,15008.00
2018-01-08T11:22:23.378Z,14912.00
2018-01-08T11:23:23.416Z,14272.00
2018-01-08T11:24:23.370Z,15136.00
2018-01-08T11:25:23.352Z,16448.00
2018-01-08T11:26:23.347Z,17088.00
2018-01-08T11:27:23.364Z,17344.00
2018-01-08T11:28:23.332Z,16000.00
2018-01-08T11:29:23.313Z,15840.00
2018-01-08T11:30:23.325Z,15392.00
2018-01-08T11:31:23.297Z,15072.00
2018-01-08T11:32:23.298Z,15360.00
2018-01-08T11:33:23.283Z,15232.00
2018-01-08T11:34:23.279Z,14752.00
2018-01-08T11:35:23.292Z,14848.00
2018-01-08T11:36:23.265Z,15616.00
2018-01-08T11:37:23.248Z,16288.00
2018-01-08T11:38:23.246Z,15840.00
2018-01-08T11:39:23.226Z,15328.00
2018-01-08T11:40:23.220Z,15296.00
2018-01-08T11:41:23.234Z,15744.00
2018-01-08T11:42:23.200Z,16032.00
2018-01-08T11:43:23.191Z,16288.00
2018-01-08T11:44:23.182Z,15904.00
2018-01-08T11:45:23.176Z,15488.00
2018-01-08T11:46:23.180Z,15392.00
2018-01-08T11:47:23.158Z,15552.00
2018-01-08T11:48:23.169Z,15520.00
2018-01-08T11:49:23.143Z,14976.00
2018-01-08T11:50:23.130Z,14444.00
2018-01-08T11:51:23.133Z,15040.00
2018-01-08T11:52:23.117Z,15616.00
2018-01-08T11:53:23.108Z,15712.00
2018-01-08T11:54:23.105Z,15264.00
2018-01-08T11:55:23.091Z,14624.00
2018-01-08T11:56:23.590Z,14128.00
2018-01-08T11:57:23.080Z,13944.00
2018-01-08T11:58:23.084Z,13980.00
2018-01-08T11:59:23.082Z,13872.00
2018-01-08T12:00:23.095Z,13508.00
2018-01-08T12:01:23.043Z,13580.00
2018-01-08T12:02:23.047Z,13708.00
2018-01-08T12:03:23.028Z,13484.00
2018-01-08T12:04:23.020Z,13628.00
2018-01-08T12:05:23.019Z,13576.00
2018-01-08T12:06:23.020Z,13340.00
2018-01-08T12:07:23.013Z,13272.00
2018-01-08T12:08:22.994Z,13036.00
2018-01-08T12:09:22.986Z,12736.00
2018-01-08T12:10:22.994Z,13128.00
2018-01-08T12:11:23.024Z,13512.00
2018-01-08T12:12:23.009Z,13552.00
2018-01-08T12:13:22.989Z,13560.00
2018-01-08T12:14:22.950Z,13432.00
2018-01-08T12:15:22.944Z,13248.00
2018-01-08T12:16:22.924Z,13104.00
2018-01-08T12:17:22.945Z,12848.00
2018-01-08T12:18:22.915Z,12784.00
2018-01-08T12:19:22.925Z,12680.00
2018-01-08T12:20:22.895Z,12568.00
2018-01-08T12:21:22.885Z,12516.00
2018-01-08T12:22:22.885Z,12584.00
2018-01-08T12:23:22.874Z,12776.00
2018-01-08T12:24:22.862Z,12720.00
2018-01-08T12:25:22.877Z,12436.00
2018-01-08T12:26:22.848Z,11912.00
2018-01-08T12:27:22.837Z,11520.00
2018-01-08T12:28:22.830Z,11320.00
2018-01-08T12:29:22.822Z,11196.00
2018-01-08T12:30:22.815Z,11200.00
2018-01-08T12:31:22.809Z,11448.00
2018-01-08T12:32:22.807Z,11480.00
2018-01-08T12:33:22.792Z,11776.00
2018-01-08T12:34:22.784Z,12116.00
2018-01-08T12:35:22.781Z,12012.00
2018-01-08T12:36:22.770Z,11608.00
2018-01-08T12:37:22.763Z,11640.00
2018-01-08T12:38:22.752Z,11636.00
2018-01-08T12:39:22.745Z,11324.00
2018-01-08T12:40:22.737Z,11204.00
2018-01-08T12:41:22.730Z,11044.00
2018-01-08T12:42:22.720Z,10960.00
2018-01-08T12:43:22.707Z,10784.00
2018-01-08T12:44:22.704Z,10640.00
2018-01-08T12:45:22.694Z,10572.00